sensor_id;sensor_type;location;lat;lon;timestamp;pressure;altitude;pressure_sealevel;temperature;humidity
43745;BME280;29359;53.048;8.732;2023-07-24T00:01:23;100452.63;;;18.04;100.00
43745;BME280;29359;53.048;8.732;2023-07-24T00:03:26;100448.16;;;18.05;100.00
43745;BME280;29359;53.048;8.732;2023-07-24T00:05:29;100448.25;;;18.03;100.00
43745;BME280;29359;53.048;8.732;2023-07-24T00:07:32;100452.63;;;18.04;100.00
43745;BME280;29359;53.048;8.732;2023-07-24T00:09:35;100449.88;;;18.06;100.00
43745;BME280;29359;53.048;8.732;2023-07-24T00:11:38;100440.91;;;18.07;100.00
43745;BME280;29359;53.048;8.732;2023-07-24T00:13:40;100442.81;;;18.05;100.00
43745;BME280;29359;53.048;8.732;2023-07-24T00:15:43;100449.88;;;18.06;100.00
43745;BME280;29359;53.048;8.732;2023-07-24T00:17:46;100444.63;;;18.04;100.00
43745;BME280;29359;53.048;8.732;2023-07-24T00:19:49;100442.91;;;18.03;100.00
43745;BME280;29359;53.048;8.732;2023-07-24T00:21:51;100445.59;;;18.03;100.00
43745;BME280;29359;53.048;8.732;2023-07-24T00:23:55;100429.47;;;18.05;100.00
43745;BME280;29359;53.048;8.732;2023-07-24T00:25:57;100432.97;;;18.05;100.00
43745;BME280;29359;53.048;8.732;2023-07-24T00:28:00;100432.13;;;18.05;100.00
43745;BME280;29359;53.048;8.732;2023-07-24T00:30:03;100438.53;;;18.02;100.00
43745;BME280;29359;53.048;8.732;2023-07-24T00:32:07;100430.41;;;18.04;100.00
43745;BME280;29359;53.048;8.732;2023-07-24T00:34:10;100433.09;;;18.04;100.00
43745;BME280;29359;53.048;8.732;2023-07-24T00:36:13;100428.50;;;18.06;100.00
43745;BME280;29359;53.048;8.732;2023-07-24T00:38:15;100430.22;;;18.07;100.00
43745;BME280;29359;53.048;8.732;2023-07-24T00:40:20;100428.28;;;18.09;100.00
43745;BME280;29359;53.048;8.732;2023-07-24T00:42:23;100428.41;;;18.07;100.00
43745;BME280;29359;53.048;8.732;2023-07-24T00:44:26;100428.28;;;18.09;100.00
43745;BME280;29359;53.048;8.732;2023-07-24T00:46:29;100438.97;;;18.09;100.00
43745;BME280;29359;53.048;8.732;2023-07-24T00:48:34;100435.34;;;18.10;100.00
43745;BME280;29359;53.048;8.732;2023-07-24T00:50:37;100430.00;;;18.10;100.00
43745;BME280;29359;53.048;8.732;2023-07-24T00:52:40;100429.06;;;18.11;100.00
43745;BME280;29359;53.048;8.732;2023-07-24T00:54:43;100425.41;;;18.12;100.00
43745;BME280;29359;53.048;8.732;2023-07-24T00:56:48;100421.78;;;18.13;100.00
43745;BME280;29359;53.048;8.732;2023-07-24T00:58:51;100423.50;;;18.14;100.00
43745;BME280;29359;53.048;8.732;2023-07-24T01:00:54;100425.22;;;18.15;100.00
43745;BME280;29359;53.048;8.732;2023-07-24T01:02:58;100417.97;;;18.17;100.00
43745;BME280;29359;53.048;8.732;2023-07-24T01:05:03;100417.00;;;18.18;100.00
43745;BME280;29359;53.048;8.732;2023-07-24T01:07:06;100422.25;;;18.19;100.00
43745;BME280;29359;53.048;8.732;2023-07-24T01:09:08;100424.91;;;18.19;100.00
43745;BME280;29359;53.048;8.732;2023-07-24T01:11:15;100420.34;;;18.22;100.00
43745;BME280;29359;53.048;8.732;2023-07-24T01:13:24;100423.88;;;18.22;100.00
43745;BME280;29359;53.048;8.732;2023-07-24T01:15:31;100418.53;;;18.22;100.00
43745;BME280;29359;53.048;8.732;2023-07-24T01:17:39;100420.34;;;18.22;100.00
43745;BME280;29359;53.048;8.732;2023-07-24T01:19:46;100423.09;;;18.20;100.00
43745;BME280;29359;53.048;8.732;2023-07-24T01:22:01;100429.41;;;18.19;100.00
43745;BME280;29359;53.048;8.732;2023-07-24T01:24:14;100427.03;;;18.14;100.00
43745;BME280;29359;53.048;8.732;2023-07-24T01:26:24;100430.75;;;18.12;100.00
43745;BME280;29359;53.048;8.732;2023-07-24T01:28:29;100424.56;;;18.11;100.00
43745;BME280;29359;53.048;8.732;2023-07-24T01:30:31;100423.81;;;18.09;100.00
43745;BME280;29359;53.048;8.732;2023-07-24T01:32:34;100424.13;;;18.05;100.00
43745;BME280;29359;53.048;8.732;2023-07-24T01:34:37;100430.41;;;18.04;100.00
43745;BME280;29359;53.048;8.732;2023-07-24T01:36:40;100427.00;;;18.02;100.00
43745;BME280;29359;53.048;8.732;2023-07-24T01:38:43;100424.41;;;18.00;100.00
43745;BME280;29359;53.048;8.732;2023-07-24T01:40:47;100431.47;;;18.01;100.00
43745;BME280;29359;53.048;8.732;2023-07-24T01:42:50;100423.56;;;18.00;100.00
43745;BME280;29359;53.048;8.732;2023-07-24T01:44:54;100425.38;;;17.99;100.00
43745;BME280;29359;53.048;8.732;2023-07-24T01:46:56;100414.69;;;17.99;100.00
43745;BME280;29359;53.048;8.732;2023-07-24T01:48:59;100413.06;;;17.97;100.00
43745;BME280;29359;53.048;8.732;2023-07-24T01:51:01;100411.47;;;17.94;100.00
43745;BME280;29359;53.048;8.732;2023-07-24T01:53:04;100409.75;;;17.93;100.00
43745;BME280;29359;53.048;8.732;2023-07-24T01:55:07;100412.44;;;17.93;100.00
43745;BME280;29359;53.048;8.732;2023-07-24T01:57:11;100413.38;;;17.92;100.00
43745;BME280;29359;53.048;8.732;2023-07-24T01:59:15;100414.25;;;17.93;100.00
43745;BME280;29359;53.048;8.732;2023-07-24T02:01:18;100421.28;;;17.94;100.00
43745;BME280;29359;53.048;8.732;2023-07-24T02:03:21;100416.81;;;17.94;100.00
43745;BME280;29359;53.048;8.732;2023-07-24T02:05:24;100415.00;;;17.95;100.00
43745;BME280;29359;53.048;8.732;2023-07-24T02:07:26;100416.72;;;17.96;100.00
43745;BME280;29359;53.048;8.732;2023-07-24T02:09:28;100416.81;;;17.94;100.00
43745;BME280;29359;53.048;8.732;2023-07-24T02:11:31;100411.38;;;17.96;100.00
43745;BME280;29359;53.048;8.732;2023-07-24T02:13:34;100403.47;;;17.94;100.00
43745;BME280;29359;53.048;8.732;2023-07-24T02:15:38;100405.16;;;17.95;100.00
43745;BME280;29359;53.048;8.732;2023-07-24T02:17:42;100407.84;;;17.95;100.00
43745;BME280;29359;53.048;8.732;2023-07-24T02:19:45;100401.63;;;17.95;100.00
43745;BME280;29359;53.048;8.732;2023-07-24T02:21:48;100402.59;;;17.94;99.84
43745;BME280;29359;53.048;8.732;2023-07-24T02:23:50;100409.66;;;17.95;99.79
43745;BME280;29359;53.048;8.732;2023-07-24T02:25:53;100410.63;;;17.94;99.66
43745;BME280;29359;53.048;8.732;2023-07-24T02:27:56;100397.16;;;17.95;99.78
43745;BME280;29359;53.048;8.732;2023-07-24T02:29:59;100395.44;;;17.94;99.91
43745;BME280;29359;53.048;8.732;2023-07-24T02:32:03;100390.97;;;17.95;99.72
43745;BME280;29359;53.048;8.732;2023-07-24T02:34:06;100386.78;;;17.91;100.00
43745;BME280;29359;53.048;8.732;2023-07-24T02:36:09;100383.34;;;17.88;100.00
43745;BME280;29359;53.048;8.732;2023-07-24T02:38:12;100388.69;;;17.88;100.00
43745;BME280;29359;53.048;8.732;2023-07-24T02:40:15;100397.75;;;17.86;100.00
43745;BME280;29359;53.048;8.732;2023-07-24T02:42:17;100393.47;;;17.83;100.00
43745;BME280;29359;53.048;8.732;2023-07-24T02:44:20;100397.22;;;17.81;100.00
43745;BME280;29359;53.048;8.732;2023-07-24T02:46:22;100392.94;;;17.78;100.00
43745;BME280;29359;53.048;8.732;2023-07-24T02:48:27;100383.38;;;17.74;99.99
43745;BME280;29359;53.048;8.732;2023-07-24T02:50:31;100386.34;;;17.70;99.53
43745;BME280;29359;53.048;8.732;2023-07-24T02:52:35;100386.59;;;17.65;99.26
43745;BME280;29359;53.048;8.732;2023-07-24T02:54:36;100387.00;;;17.59;99.67
43745;BME280;29359;53.048;8.732;2023-07-24T02:56:39;100395.22;;;17.56;99.53
43745;BME280;29359;53.048;8.732;2023-07-24T02:58:42;100389.22;;;17.52;99.82
43745;BME280;29359;53.048;8.732;2023-07-24T03:00:45;100389.50;;;17.48;99.94
43745;BME280;29359;53.048;8.732;2023-07-24T03:02:48;100401.25;;;17.45;99.89
43745;BME280;29359;53.048;8.732;2023-07-24T03:04:52;100398.88;;;17.41;99.95
43745;BME280;29359;53.048;8.732;2023-07-24T03:06:55;100399.91;;;17.38;99.91
43745;BME280;29359;53.048;8.732;2023-07-24T03:08:57;100398.38;;;17.34;99.89
43745;BME280;29359;53.048;8.732;2023-07-24T03:11:04;100402.09;;;17.32;100.00
43745;BME280;29359;53.048;8.732;2023-07-24T03:13:06;100394.38;;;17.27;100.00
43745;BME280;29359;53.048;8.732;2023-07-24T03:15:10;100390.19;;;17.23;99.30
43745;BME280;29359;53.048;8.732;2023-07-24T03:17:13;100389.41;;;17.21;99.03
43745;BME280;29359;53.048;8.732;2023-07-24T03:19:15;100405.72;;;17.16;99.39
43745;BME280;29359;53.048;8.732;2023-07-24T03:21:20;100397.91;;;17.13;99.94
43745;BME280;29359;53.048;8.732;2023-07-24T03:23:23;100390.94;;;17.11;99.30
43745;BME280;29359;53.048;8.732;2023-07-24T03:25:26;100385.72;;;17.09;98.65
43745;BME280;29359;53.048;8.732;2023-07-24T03:27:28;100379.44;;;17.10;98.27
43745;BME280;29359;53.048;8.732;2023-07-24T03:29:31;100384.00;;;17.08;98.36
43745;BME280;29359;53.048;8.732;2023-07-24T03:31:34;100388.56;;;17.06;98.22
43745;BME280;29359;53.048;8.732;2023-07-24T03:33:37;100381.53;;;17.05;98.12
43745;BME280;29359;53.048;8.732;2023-07-24T03:35:39;100378.00;;;17.05;97.88
43745;BME280;29359;53.048;8.732;2023-07-24T03:37:43;100383.53;;;17.02;97.76
43745;BME280;29359;53.048;8.732;2023-07-24T03:39:46;100372.97;;;17.00;97.79
43745;BME280;29359;53.048;8.732;2023-07-24T03:41:49;100372.28;;;16.97;97.23
43745;BME280;29359;53.048;8.732;2023-07-24T03:43:51;100370.56;;;16.95;97.32
43745;BME280;29359;53.048;8.732;2023-07-24T03:45:54;100375.06;;;16.95;98.75
43745;BME280;29359;53.048;8.732;2023-07-24T03:47:57;100384.88;;;16.94;100.00
43745;BME280;29359;53.048;8.732;2023-07-24T03:50:00;100384.78;;;16.96;100.00
43745;BME280;29359;53.048;8.732;2023-07-24T03:52:02;100388.97;;;17.00;100.00
43745;BME280;29359;53.048;8.732;2023-07-24T03:54:07;100394.00;;;17.05;100.00
43745;BME280;29359;53.048;8.732;2023-07-24T03:56:10;100393.81;;;17.08;100.00
43745;BME280;29359;53.048;8.732;2023-07-24T03:58:12;100380.28;;;17.11;100.00
43745;BME280;29359;53.048;8.732;2023-07-24T04:00:15;100378.47;;;17.11;100.00
43745;BME280;29359;53.048;8.732;2023-07-24T04:02:20;100373.91;;;17.13;100.00
43745;BME280;29359;53.048;8.732;2023-07-24T04:04:23;100381.72;;;17.16;100.00
43745;BME280;29359;53.048;8.732;2023-07-24T04:06:26;100386.09;;;17.17;100.00
43745;BME280;29359;53.048;8.732;2023-07-24T04:08:29;100388.66;;;17.19;100.00
43745;BME280;29359;53.048;8.732;2023-07-24T04:10:33;100379.72;;;17.20;100.00
43745;BME280;29359;53.048;8.732;2023-07-24T04:12:36;100381.22;;;17.24;100.00
43745;BME280;29359;53.048;8.732;2023-07-24T04:14:39;100377.41;;;17.28;100.00
43745;BME280;29359;53.048;8.732;2023-07-24T04:16:42;100374.66;;;17.30;100.00
43745;BME280;29359;53.048;8.732;2023-07-24T04:18:44;100371.78;;;17.33;100.00
43745;BME280;29359;53.048;8.732;2023-07-24T04:20:47;100374.28;;;17.36;100.00
43745;BME280;29359;53.048;8.732;2023-07-24T04:22:49;100364.28;;;17.39;100.00
43745;BME280;29359;53.048;8.732;2023-07-24T04:24:52;100372.06;;;17.42;100.00
43745;BME280;29359;53.048;8.732;2023-07-24T04:26:56;100363.78;;;17.47;100.00
43745;BME280;29359;53.048;8.732;2023-07-24T04:28:59;100368.81;;;17.51;100.00
43745;BME280;29359;53.048;8.732;2023-07-24T04:31:01;100364.13;;;17.55;100.00
43745;BME280;29359;53.048;8.732;2023-07-24T04:33:04;100366.50;;;17.59;100.00
43745;BME280;29359;53.048;8.732;2023-07-24T04:35:07;100360.00;;;17.64;100.00
43745;BME280;29359;53.048;8.732;2023-07-24T04:37:10;100342.00;;;17.67;100.00
43745;BME280;29359;53.048;8.732;2023-07-24T04:39:13;100350.56;;;17.72;100.00
43745;BME280;29359;53.048;8.732;2023-07-24T04:41:16;100337.78;;;17.77;100.00
43745;BME280;29359;53.048;8.732;2023-07-24T04:43:20;100347.22;;;17.83;100.00
43745;BME280;29359;53.048;8.732;2023-07-24T04:45:23;100342.53;;;17.86;100.00
43745;BME280;29359;53.048;8.732;2023-07-24T04:47:25;100339.56;;;17.91;100.00
43745;BME280;29359;53.048;8.732;2023-07-24T04:49:28;100332.09;;;17.96;100.00
43745;BME280;29359;53.048;8.732;2023-07-24T04:51:32;100330.19;;;17.98;100.00
43745;BME280;29359;53.048;8.732;2023-07-24T04:53:37;100331.03;;;17.99;100.00
43745;BME280;29359;53.048;8.732;2023-07-24T04:55:39;100333.72;;;17.99;100.00
43745;BME280;29359;53.048;8.732;2023-07-24T04:57:42;100322.91;;;18.00;100.00
43745;BME280;29359;53.048;8.732;2023-07-24T04:59:47;100317.56;;;18.00;100.00
43745;BME280;29359;53.048;8.732;2023-07-24T05:01:49;100316.63;;;18.01;100.00
43745;BME280;29359;53.048;8.732;2023-07-24T05:03:52;100321.97;;;18.01;100.00
43745;BME280;29359;53.048;8.732;2023-07-24T05:05:55;100311.16;;;18.03;100.00
43745;BME280;29359;53.048;8.732;2023-07-24T05:07:58;100321.66;;;18.06;100.00
43745;BME280;29359;53.048;8.732;2023-07-24T05:10:01;100318.13;;;18.05;100.00
43745;BME280;29359;53.048;8.732;2023-07-24T05:12:05;100315.34;;;18.07;100.00
43745;BME280;29359;53.048;8.732;2023-07-24T05:14:08;100309.91;;;18.08;100.00
43745;BME280;29359;53.048;8.732;2023-07-24T05:16:12;100317.81;;;18.10;100.00
43745;BME280;29359;53.048;8.732;2023-07-24T05:18:15;100308.19;;;18.07;100.00
43745;BME280;29359;53.048;8.732;2023-07-24T05:20:18;100307.22;;;18.08;100.00
43745;BME280;29359;53.048;8.732;2023-07-24T05:22:20;100305.31;;;18.10;100.00
43745;BME280;29359;53.048;8.732;2023-07-24T05:24:23;100307.03;;;18.11;100.00
43745;BME280;29359;53.048;8.732;2023-07-24T05:26:26;100315.88;;;18.12;100.00
43745;BME280;29359;53.048;8.732;2023-07-24T05:28:31;100310.53;;;18.12;100.00
43745;BME280;29359;53.048;8.732;2023-07-24T05:30:34;100313.31;;;18.10;100.00
43745;BME280;29359;53.048;8.732;2023-07-24T05:32:38;100312.25;;;18.13;100.00
43745;BME280;29359;53.048;8.732;2023-07-24T05:34:41;100311.09;;;18.17;100.00
43745;BME280;29359;53.048;8.732;2023-07-24T05:36:46;100316.16;;;18.22;100.00
43745;BME280;29359;53.048;8.732;2023-07-24T05:38:51;100311.25;;;18.28;100.00
43745;BME280;29359;53.048;8.732;2023-07-24T05:40:55;100311.13;;;18.30;100.00
43745;BME280;29359;53.048;8.732;2023-07-24T05:42:57;100302.25;;;18.29;100.00
43745;BME280;29359;53.048;8.732;2023-07-24T05:45:00;100303.13;;;18.30;100.00
43745;BME280;29359;53.048;8.732;2023-07-24T05:47:03;100293.50;;;18.27;100.00
43745;BME280;29359;53.048;8.732;2023-07-24T05:49:07;100294.34;;;18.28;100.00
43745;BME280;29359;53.048;8.732;2023-07-24T05:51:10;100285.38;;;18.29;100.00
43745;BME280;29359;53.048;8.732;2023-07-24T05:53:14;100288.91;;;18.29;100.00
43745;BME280;29359;53.048;8.732;2023-07-24T05:55:17;100287.94;;;18.30;100.00
43745;BME280;29359;53.048;8.732;2023-07-24T05:57:20;100283.34;;;18.32;100.00
43745;BME280;29359;53.048;8.732;2023-07-24T05:59:22;100294.03;;;18.32;100.00
43745;BME280;29359;53.048;8.732;2023-07-24T06:01:25;100287.94;;;18.30;100.00
43745;BME280;29359;53.048;8.732;2023-07-24T06:03:28;100284.50;;;18.28;100.00
43745;BME280;29359;53.048;8.732;2023-07-24T06:05:32;100283.66;;;18.28;100.00
43745;BME280;29359;53.048;8.732;2023-07-24T06:07:35;100288.34;;;18.24;100.00
43745;BME280;29359;53.048;8.732;2023-07-24T06:09:38;100300.75;;;18.25;100.00
43745;BME280;29359;53.048;8.732;2023-07-24T06:11:41;100291.78;;;18.26;100.00
43745;BME280;29359;53.048;8.732;2023-07-24T06:13:43;100291.69;;;18.28;100.00
43745;BME280;29359;53.048;8.732;2023-07-24T06:15:47;100286.22;;;18.29;100.00
43745;BME280;29359;53.048;8.732;2023-07-24T06:17:50;100280.66;;;18.32;100.00
43745;BME280;29359;53.048;8.732;2023-07-24T06:19:55;100278.75;;;18.34;100.00
43745;BME280;29359;53.048;8.732;2023-07-24T06:21:59;100274.25;;;18.35;100.00
43745;BME280;29359;53.048;8.732;2023-07-24T06:24:02;100285.81;;;18.35;100.00
43745;BME280;29359;53.048;8.732;2023-07-24T06:26:05;100286.66;;;18.36;100.00
43745;BME280;29359;53.048;8.732;2023-07-24T06:28:08;100289.31;;;18.36;100.00
43745;BME280;29359;53.048;8.732;2023-07-24T06:30:11;100295.63;;;18.35;100.00
43745;BME280;29359;53.048;8.732;2023-07-24T06:32:17;100290.19;;;18.36;100.00
43745;BME280;29359;53.048;8.732;2023-07-24T06:34:19;100298.00;;;18.39;100.00
43745;BME280;29359;53.048;8.732;2023-07-24T06:36:22;100288.03;;;18.41;100.00
43745;BME280;29359;53.048;8.732;2023-07-24T06:38:25;100285.25;;;18.43;100.00
43745;BME280;29359;53.048;8.732;2023-07-24T06:40:28;100285.16;;;18.44;100.00
43745;BME280;29359;53.048;8.732;2023-07-24T06:42:31;100294.78;;;18.47;100.00
43745;BME280;29359;53.048;8.732;2023-07-24T06:44:34;100288.47;;;18.48;100.00
43745;BME280;29359;53.048;8.732;2023-07-24T06:46:37;100284.94;;;18.47;100.00
43745;BME280;29359;53.048;8.732;2023-07-24T06:48:39;100298.19;;;18.49;100.00
43745;BME280;29359;53.048;8.732;2023-07-24T06:50:42;100297.34;;;18.48;100.00
43745;BME280;29359;53.048;8.732;2023-07-24T06:52:45;100299.06;;;18.49;100.00
43745;BME280;29359;53.048;8.732;2023-07-24T06:54:49;100301.84;;;18.48;100.00
43745;BME280;29359;53.048;8.732;2023-07-24T06:56:52;100300.97;;;18.47;100.00
43745;BME280;29359;53.048;8.732;2023-07-24T06:58:55;100299.28;;;18.46;100.00
43745;BME280;29359;53.048;8.732;2023-07-24T07:00:58;100299.50;;;18.43;100.00
43745;BME280;29359;53.048;8.732;2023-07-24T07:03:00;100300.34;;;18.44;100.00
43745;BME280;29359;53.048;8.732;2023-07-24T07:05:04;100307.50;;;18.43;100.00
43745;BME280;29359;53.048;8.732;2023-07-24T07:07:07;100306.75;;;18.41;100.00
43745;BME280;29359;53.048;8.732;2023-07-24T07:09:10;100305.78;;;18.42;100.00
43745;BME280;29359;53.048;8.732;2023-07-24T07:11:14;100294.34;;;18.40;100.00
43745;BME280;29359;53.048;8.732;2023-07-24T07:13:16;100293.28;;;18.43;100.00
43745;BME280;29359;53.048;8.732;2023-07-24T07:15:19;100284.31;;;18.44;100.00
43745;BME280;29359;53.048;8.732;2023-07-24T07:17:21;100281.75;;;18.42;100.00
43745;BME280;29359;53.048;8.732;2023-07-24T07:19:24;100285.47;;;18.40;100.00
43745;BME280;29359;53.048;8.732;2023-07-24T07:21:27;100296.28;;;18.38;100.00
43745;BME280;29359;53.048;8.732;2023-07-24T07:23:30;100301.63;;;18.38;100.00
43745;BME280;29359;53.048;8.732;2023-07-24T07:25:33;100296.38;;;18.37;100.00
43745;BME280;29359;53.048;8.732;2023-07-24T07:27:37;100299.91;;;18.37;100.00
43745;BME280;29359;53.048;8.732;2023-07-24T07:29:40;100301.41;;;18.41;100.00
43745;BME280;29359;53.048;8.732;2023-07-24T07:31:43;100298.63;;;18.43;99.97
43745;BME280;29359;53.048;8.732;2023-07-24T07:33:45;100301.41;;;18.41;98.65
43745;BME280;29359;53.048;8.732;2023-07-24T07:35:49;100307.59;;;18.42;98.35
43745;BME280;29359;53.048;8.732;2023-07-24T07:37:52;100304.72;;;18.45;97.92
43745;BME280;29359;53.048;8.732;2023-07-24T07:39:55;100302.81;;;18.47;97.87
43745;BME280;29359;53.048;8.732;2023-07-24T07:41:58;100303.75;;;18.46;97.57
43745;BME280;29359;53.048;8.732;2023-07-24T07:44:19;100306.97;;;18.51;97.38
43745;BME280;29359;53.048;8.732;2023-07-24T07:46:22;100310.19;;;18.56;97.48
43745;BME280;29359;53.048;8.732;2023-07-24T07:48:25;100306.16;;;18.63;97.50
43745;BME280;29359;53.048;8.732;2023-07-24T07:50:28;100305.63;;;18.71;97.57
43745;BME280;29359;53.048;8.732;2023-07-24T07:52:30;100303.28;;;18.79;97.83
43745;BME280;29359;53.048;8.732;2023-07-24T07:54:33;100296.84;;;18.81;97.47
43745;BME280;29359;53.048;8.732;2023-07-24T07:56:36;100294.81;;;18.85;97.19
43745;BME280;29359;53.048;8.732;2023-07-24T07:58:39;100298.97;;;18.89;97.40
43745;BME280;29359;53.048;8.732;2023-07-24T08:00:43;100300.78;;;18.89;96.88
43745;BME280;29359;53.048;8.732;2023-07-24T08:02:46;100295.66;;;18.86;96.30
43745;BME280;29359;53.048;8.732;2023-07-24T08:04:49;100302.72;;;18.87;96.13
43745;BME280;29359;53.048;8.732;2023-07-24T08:06:50;100309.56;;;18.91;96.18
43745;BME280;29359;53.048;8.732;2023-07-24T08:08:53;100303.66;;;18.98;96.38
43745;BME280;29359;53.048;8.732;2023-07-24T08:10:56;100300.78;;;19.01;95.63
43745;BME280;29359;53.048;8.732;2023-07-24T08:12:59;100304.19;;;19.03;95.07
43745;BME280;29359;53.048;8.732;2023-07-24T08:15:02;100305.78;;;19.06;94.85
43745;BME280;29359;53.048;8.732;2023-07-24T08:17:06;100303.78;;;19.09;94.44
43745;BME280;29359;53.048;8.732;2023-07-24T08:19:09;100308.69;;;19.16;94.29
43745;BME280;29359;53.048;8.732;2023-07-24T08:21:12;100300.53;;;19.17;93.92
43745;BME280;29359;53.048;8.732;2023-07-24T08:23:15;100294.13;;;19.20;93.55
43745;BME280;29359;53.048;8.732;2023-07-24T08:25:18;100296.69;;;19.21;93.34
43745;BME280;29359;53.048;8.732;2023-07-24T08:27:19;100300.00;;;19.25;93.53
43745;BME280;29359;53.048;8.732;2023-07-24T08:29:22;100291.84;;;19.26;93.00
43745;BME280;29359;53.048;8.732;2023-07-24T08:31:25;100297.94;;;19.28;92.51
43745;BME280;29359;53.048;8.732;2023-07-24T08:33:29;100297.41;;;19.23;91.64
43745;BME280;29359;53.048;8.732;2023-07-24T08:35:32;100301.28;;;19.19;91.91
43745;BME280;29359;53.048;8.732;2023-07-24T08:37:35;100295.19;;;19.17;91.58
43745;BME280;29359;53.048;8.732;2023-07-24T08:39:38;100294.22;;;19.18;93.02
43745;BME280;29359;53.048;8.732;2023-07-24T08:41:41;100283.63;;;19.17;93.07
43745;BME280;29359;53.048;8.732;2023-07-24T08:43:44;100287.78;;;19.21;93.84
43745;BME280;29359;53.048;8.732;2023-07-24T08:45:47;100294.53;;;19.26;93.50
43745;BME280;29359;53.048;8.732;2023-07-24T08:47:50;100294.47;;;19.39;94.13
43745;BME280;29359;53.048;8.732;2023-07-24T08:49:55;100294.03;;;19.45;94.03
43745;BME280;29359;53.048;8.732;2023-07-24T08:51:58;100284.28;;;19.44;94.49
43745;BME280;29359;53.048;8.732;2023-07-24T08:54:03;100283.94;;;19.49;94.75
43745;BME280;29359;53.048;8.732;2023-07-24T08:56:07;100274.66;;;19.54;94.92
43745;BME280;29359;53.048;8.732;2023-07-24T08:58:11;100280.88;;;19.55;94.58
43745;BME280;29359;53.048;8.732;2023-07-24T09:00:14;100271.75;;;19.57;92.91
43745;BME280;29359;53.048;8.732;2023-07-24T09:02:16;100285.16;;;19.57;93.56
43745;BME280;29359;53.048;8.732;2023-07-24T09:04:19;100285.25;;;19.56;93.66
43745;BME280;29359;53.048;8.732;2023-07-24T09:06:25;100288.16;;;19.53;93.20
43745;BME280;29359;53.048;8.732;2023-07-24T09:08:29;100283.94;;;19.49;92.90
43745;BME280;29359;53.048;8.732;2023-07-24T09:10:32;100277.44;;;19.53;93.14
43745;BME280;29359;53.048;8.732;2023-07-24T09:12:37;100276.88;;;19.60;93.52
43745;BME280;29359;53.048;8.732;2023-07-24T09:14:41;100279.94;;;19.67;93.44
43745;BME280;29359;53.048;8.732;2023-07-24T09:16:44;100287.63;;;19.71;93.03
43745;BME280;29359;53.048;8.732;2023-07-24T09:18:46;100276.81;;;19.73;92.02
43745;BME280;29359;53.048;8.732;2023-07-24T09:21:10;100278.69;;;19.84;92.47
43745;BME280;29359;53.048;8.732;2023-07-24T09:23:15;100282.31;;;19.83;92.02
43745;BME280;29359;53.048;8.732;2023-07-24T09:25:29;100276.56;;;19.76;92.51
43745;BME280;29359;53.048;8.732;2023-07-24T09:27:32;100287.00;;;19.68;92.83
43745;BME280;29359;53.048;8.732;2023-07-24T09:29:36;100277.03;;;19.70;93.31
43745;BME280;29359;53.048;8.732;2023-07-24T09:31:39;100278.16;;;19.79;92.70
43745;BME280;29359;53.048;8.732;2023-07-24T09:33:42;100274.25;;;19.95;92.37
43745;BME280;29359;53.048;8.732;2023-07-24T09:35:45;100274.78;;;20.12;91.77
43745;BME280;29359;53.048;8.732;2023-07-24T09:38:03;100272.00;;;20.24;89.36
43745;BME280;29359;53.048;8.732;2023-07-24T09:40:09;100261.41;;;20.34;88.58
43745;BME280;29359;53.048;8.732;2023-07-24T09:42:12;100258.81;;;20.45;88.38
43745;BME280;29359;53.048;8.732;2023-07-24T09:44:15;100253.31;;;20.58;87.41
43745;BME280;29359;53.048;8.732;2023-07-24T09:46:18;100254.53;;;20.65;86.75
43745;BME280;29359;53.048;8.732;2023-07-24T09:48:23;100249.41;;;20.62;85.24
43745;BME280;29359;53.048;8.732;2023-07-24T09:50:28;100241.50;;;20.60;84.95
43745;BME280;29359;53.048;8.732;2023-07-24T09:52:31;100249.91;;;20.67;85.61
43745;BME280;29359;53.048;8.732;2023-07-24T09:54:38;100248.31;;;20.76;85.97
43745;BME280;29359;53.048;8.732;2023-07-24T09:56:48;100238.34;;;20.89;85.38
43745;BME280;29359;53.048;8.732;2023-07-24T09:59:05;100245.38;;;21.01;83.92
43745;BME280;29359;53.048;8.732;2023-07-24T10:01:09;100241.69;;;21.13;83.32
43745;BME280;29359;53.048;8.732;2023-07-24T10:03:14;100242.94;;;21.31;83.25
43745;BME280;29359;53.048;8.732;2023-07-24T10:05:17;100242.66;;;21.46;81.74
43745;BME280;29359;53.048;8.732;2023-07-24T10:07:20;100248.31;;;21.63;80.98
43745;BME280;29359;53.048;8.732;2023-07-24T10:09:24;100244.66;;;21.64;77.10
43745;BME280;29359;53.048;8.732;2023-07-24T10:11:31;100234.00;;;21.74;77.83
43745;BME280;29359;53.048;8.732;2023-07-24T10:13:36;100239.84;;;21.79;77.99
43745;BME280;29359;53.048;8.732;2023-07-24T10:15:39;100235.66;;;21.86;76.99
43745;BME280;29359;53.048;8.732;2023-07-24T10:17:43;100233.56;;;21.90;76.07
43745;BME280;29359;53.048;8.732;2023-07-24T10:19:45;100227.13;;;21.81;75.07
43745;BME280;29359;53.048;8.732;2023-07-24T10:21:49;100222.53;;;21.72;75.48
43745;BME280;29359;53.048;8.732;2023-07-24T10:23:53;100226.41;;;21.79;76.76
43745;BME280;29359;53.048;8.732;2023-07-24T10:26:02;100231.59;;;21.92;75.98
43745;BME280;29359;53.048;8.732;2023-07-24T10:28:07;100227.41;;;21.99;74.79
43745;BME280;29359;53.048;8.732;2023-07-24T10:30:14;100223.94;;;22.08;74.91
43745;BME280;29359;53.048;8.732;2023-07-24T10:32:45;100221.09;;;22.21;74.21
43745;BME280;29359;53.048;8.732;2023-07-24T10:34:56;100226.13;;;22.14;72.50
43745;BME280;29359;53.048;8.732;2023-07-24T10:37:02;100230.06;;;21.99;71.42
43745;BME280;29359;53.048;8.732;2023-07-24T10:39:13;100223.63;;;22.22;73.08
43745;BME280;29359;53.048;8.732;2023-07-24T10:41:16;100214.00;;;22.50;70.24